This is the latest recevied weather packets stored in our database for station/object SP9EPI-13. If no packets are shown the sender has not sent any weather packets the latest 10 day(s).
| Time | Temp. | Humidity | Pressure | Rain* | Wind** | Luminosity | Snow |
|---|---|---|---|---|---|---|---|
| 1777454400 | 8.89° C | 50% | 1021.6 hPa | - | - | - | - |
| 1777453801 | 8.89° C | 57% | 1021.6 hPa | - | - | - | - |
| 1777453201 | 8.89° C | 58% | 1021.6 hPa | - | - | - | - |
| 1777452601 | 8.89° C | 60% | 1021.6 hPa | - | - | - | - |
| 1777452001 | 7.78° C | 62% | 1021.6 hPa | - | - | - | - |
| 1777451401 | 7.78° C | 62% | 1021.6 hPa | - | - | - | - |
| 1777450800 | 7.78° C | 63% | 1021 hPa | - | - | - | - |
| 1777450201 | 7.78° C | 63% | 1021 hPa | - | - | - | - |
| 1777449601 | 7.78° C | 64% | 1021 hPa | - | - | - | - |
| 1777449001 | 7.78° C | 63% | 1021 hPa | - | - | - | - |
| 1777448401 | 7.78° C | 65% | 1021 hPa | - | - | - | - |
| 1777447801 | 7.22° C | 67% | 1021 hPa | - | - | - | - |
| 1777447201 | 7.78° C | 65% | 1021 hPa | - | - | - | - |
| 1777446600 | 7.22° C | 68% | 1020.6 hPa | - | - | - | - |
| 1777446000 | 7.78° C | 66% | 1020.6 hPa | - | - | - | - |
| 1777445401 | 7.22° C | 71% | 1020.6 hPa | - | - | - | - |
| 1777444801 | 6.11° C | 70% | 1020.6 hPa | - | - | - | - |
| 1777444201 | 6.11° C | 73% | 1020.6 hPa | - | - | - | - |
| 1777443601 | 7.22° C | 72% | 1020.6 hPa | - | - | - | - |
| 1777443001 | 6.11° C | 73% | 1020.3 hPa | - | - | - | - |
| 1777442401 | 5° C | 78% | 1020.3 hPa | - | - | - | - |
| 1777441800 | 3.89° C | 82% | 1020.3 hPa | - | - | - | - |
| 1777441200 | 3.89° C | 81% | 1020.3 hPa | - | - | - | - |
| 1777440601 | 5° C | 79% | 1019.9 hPa | - | - | - | - |
| 1777440001 | 2.78° C | 83% | 1019.9 hPa | - | - | - | - |
* Rain since midnight (hover to see other rain measurements)
** Current wind speed in m/s (hover to see current wind gust speed)